createdAt,value
2023-03-01T00:00:17.699Z,77.8
2023-03-01T00:01:34.805Z,77.8
2023-03-01T00:02:51.911Z,77.5
2023-03-01T00:04:09.017Z,77.3
2023-03-01T00:05:26.123Z,77.3
2023-03-01T00:06:43.229Z,77.5
2023-03-01T00:07:59.351Z,77.7
2023-03-01T00:09:16.456Z,77.8
2023-03-01T00:10:33.562Z,77.7
2023-03-01T00:11:50.668Z,77.7
2023-03-01T00:13:07.774Z,77.7
2023-03-01T00:14:24.880Z,77.9
2023-03-01T00:15:41.986Z,77.8
2023-03-01T00:16:59.092Z,77.7
2023-03-01T00:18:16.197Z,77.4
2023-03-01T00:19:33.303Z,77.1
2023-03-01T00:22:07.515Z,77.4
2023-03-01T00:23:24.621Z,77.6
2023-03-01T00:24:40.743Z,78
2023-03-01T00:25:57.849Z,77.9
2023-03-01T00:27:14.954Z,78
2023-03-01T00:29:49.166Z,77.7
2023-03-01T00:31:06.272Z,77.6
2023-03-01T00:32:23.379Z,77.7
2023-03-01T00:33:40.485Z,77.5
2023-03-01T00:34:57.591Z,77.5
2023-03-01T00:36:14.697Z,77.6
2023-03-01T00:37:31.803Z,78
2023-03-01T00:40:06.014Z,77.8
2023-03-01T00:41:22.141Z,77.7
2023-03-01T00:42:38.263Z,77.4
2023-03-01T00:45:12.475Z,76.8
2023-03-01T00:46:29.581Z,76.8
2023-03-01T00:47:46.687Z,77
2023-03-01T00:49:03.793Z,77
2023-03-01T00:50:20.899Z,77.1
2023-03-01T00:51:38.005Z,77.4
2023-03-01T00:52:55.111Z,77.8
2023-03-01T00:54:12.217Z,77.9
2023-03-01T00:55:29.322Z,77.7
2023-03-01T00:56:46.429Z,77.5
2023-03-01T00:58:03.534Z,77.2
2023-03-01T00:59:19.656Z,76.6
2023-03-01T01:00:36.762Z,77
2023-03-01T01:01:53.868Z,77.1
2023-03-01T01:03:10.975Z,77.1
2023-03-01T01:04:28.081Z,77
2023-03-01T01:05:45.187Z,77.1
2023-03-01T01:07:02.292Z,77.1
2023-03-01T01:08:19.399Z,76.8
2023-03-01T01:10:52.631Z,77.1
2023-03-01T01:12:08.759Z,77
2023-03-01T01:13:24.881Z,76.8
2023-03-01T01:15:59.092Z,77.2
2023-03-01T01:17:16.198Z,77.7
2023-03-01T01:18:33.304Z,78.2
2023-03-01T01:19:50.410Z,78.6
2023-03-01T01:21:07.515Z,79.2
2023-03-01T01:22:24.622Z,79.3
2023-03-01T01:23:41.727Z,79.1
2023-03-01T01:24:58.833Z,79.1
2023-03-01T01:26:15.939Z,79.2
2023-03-01T01:27:33.045Z,79.1
2023-03-01T01:28:50.151Z,79.1
2023-03-01T01:30:06.273Z,78.8
2023-03-01T01:31:23.379Z,78.6
2023-03-01T01:32:40.484Z,78.5
2023-03-01T01:33:57.591Z,78.4
2023-03-01T01:35:14.697Z,78.2
2023-03-01T01:36:31.802Z,78
2023-03-01T01:37:48.908Z,78
2023-03-01T01:39:06.014Z,77.8
2023-03-01T01:40:23.120Z,78.1
2023-03-01T01:41:40.226Z,78
2023-03-01T01:42:57.332Z,77.9
2023-03-01T01:44:14.438Z,77.9
2023-03-01T01:46:48.650Z,77.7
2023-03-01T01:48:04.772Z,77.7
2023-03-01T01:49:21.877Z,78.1
2023-03-01T01:50:38.005Z,77.9
2023-03-01T01:51:54.127Z,77.8
2023-03-01T01:53:11.232Z,77.7
2023-03-01T01:54:28.338Z,77.9
2023-03-01T01:55:45.444Z,77.9
2023-03-01T01:57:02.550Z,77.8
2023-03-01T01:58:19.656Z,78.1
2023-03-01T01:59:36.762Z,78.3
2023-03-01T02:00:52.889Z,78.1
2023-03-01T02:02:09.995Z,78.1
2023-03-01T02:03:26.117Z,78.2
2023-03-01T02:04:43.223Z,78.3
2023-03-01T02:06:00.329Z,78.6
2023-03-01T02:07:17.435Z,78.6
2023-03-01T02:08:34.540Z,78.7
2023-03-01T02:09:51.646Z,78.7
2023-03-01T02:11:08.753Z,79.1
2023-03-01T02:12:25.858Z,79.1
2023-03-01T02:13:42.965Z,78.6
2023-03-01T02:15:00.071Z,77.9
2023-03-01T02:16:17.177Z,77.7
2023-03-01T02:17:34.283Z,77.5
2023-03-01T02:18:51.388Z,77.8
2023-03-01T02:20:07.510Z,77.7
2023-03-01T02:21:24.616Z,77.8
2023-03-01T02:22:40.738Z,77.9
2023-03-01T02:23:57.844Z,78
2023-03-01T02:25:14.950Z,77.8
2023-03-01T02:26:32.056Z,77.7
2023-03-01T02:27:49.162Z,77.7
2023-03-01T02:29:06.268Z,78.2
2023-03-01T02:30:23.374Z,78.2
2023-03-01T02:31:40.479Z,78.4
2023-03-01T02:32:57.585Z,78.6
2023-03-01T02:34:14.691Z,78.7
2023-03-01T02:35:31.797Z,79.1
2023-03-01T02:36:48.903Z,78.9
2023-03-01T02:38:06.009Z,79
2023-03-01T02:40:39.237Z,78.6
2023-03-01T02:41:56.342Z,78.8
2023-03-01T02:43:13.448Z,79
2023-03-01T02:44:30.554Z,79.1
2023-03-01T02:45:47.660Z,79.1
2023-03-01T02:47:04.766Z,78.6
2023-03-01T02:48:21.872Z,78.8
2023-03-01T02:49:38.978Z,78.7
2023-03-01T02:50:56.083Z,78.6
2023-03-01T02:52:13.189Z,78.5
2023-03-01T02:53:30.295Z,78.9
2023-03-01T02:54:47.401Z,78.8
2023-03-01T02:56:04.507Z,78.7
2023-03-01T02:57:20.629Z,78.8
2023-03-01T02:58:37.734Z,78.8
2023-03-01T02:59:54.840Z,78.6
2023-03-01T03:01:11.945Z,78.6
2023-03-01T03:02:29.051Z,78.9
2023-03-01T03:03:46.157Z,78.7
2023-03-01T03:05:03.262Z,78.6
2023-03-01T03:06:20.368Z,78.9
2023-03-01T03:07:37.474Z,78.9
2023-03-01T03:08:54.580Z,79
2023-03-01T03:10:11.686Z,79
2023-03-01T03:11:28.792Z,79
2023-03-01T03:12:45.898Z,78.8
2023-03-01T03:14:02.020Z,79
2023-03-01T03:15:19.126Z,78.8
2023-03-01T03:16:36.233Z,78.8
2023-03-01T03:19:10.445Z,79.2
2023-03-01T03:20:27.551Z,79.1
2023-03-01T03:21:44.657Z,79
2023-03-01T03:23:01.763Z,78.8
2023-03-01T03:24:18.868Z,78.8
2023-03-01T03:26:53.080Z,78.9
2023-03-01T03:28:10.185Z,79.1
2023-03-01T03:29:27.292Z,79.4
2023-03-01T03:30:43.413Z,79.6
2023-03-01T03:32:00.519Z,79.8
2023-03-01T03:34:34.731Z,79.7
2023-03-01T03:35:50.858Z,79.5
2023-03-01T03:37:06.979Z,79.3
2023-03-01T03:38:24.085Z,79.2
2023-03-01T03:39:41.190Z,79
2023-03-01T03:42:15.402Z,79
2023-03-01T03:43:32.508Z,79.1
2023-03-01T03:44:49.614Z,79.1
2023-03-01T03:46:06.719Z,79
2023-03-01T03:47:23.825Z,79
2023-03-01T03:49:58.036Z,79.1
2023-03-01T03:51:15.142Z,79.3
2023-03-01T03:52:31.270Z,79.4
2023-03-01T03:53:47.392Z,79.8
2023-03-01T03:55:04.497Z,79.5
2023-03-01T03:56:21.604Z,79.7
2023-03-01T03:57:38.710Z,79.8
2023-03-01T03:58:55.816Z,79.6
2023-03-01T04:00:12.922Z,79.4
2023-03-01T04:01:30.028Z,79.2
2023-03-01T04:02:47.134Z,79.4
2023-03-01T04:05:21.345Z,79.3
2023-03-01T04:06:38.452Z,79.2
2023-03-01T04:07:55.558Z,79.3
2023-03-01T04:09:12.664Z,79.2
2023-03-01T04:10:28.786Z,79.3
2023-03-01T04:11:45.892Z,79.5
2023-03-01T04:13:02.998Z,80
2023-03-01T04:14:20.104Z,79.7
2023-03-01T04:16:54.315Z,80
2023-03-01T04:18:11.421Z,80.1
2023-03-01T04:19:28.527Z,80.1
2023-03-01T04:20:45.633Z,80
2023-03-01T04:22:02.738Z,80.1
2023-03-01T04:23:19.844Z,80
2023-03-01T04:24:36.950Z,80.2
2023-03-01T04:25:54.056Z,80.6
2023-03-01T04:27:10.178Z,81.5
2023-03-01T04:28:27.283Z,82.1
2023-03-01T04:29:44.389Z,82.1
2023-03-01T04:31:01.495Z,81.3
2023-03-01T04:32:17.622Z,80.5
2023-03-01T04:33:34.728Z,79.9
2023-03-01T04:34:50.850Z,79.8
2023-03-01T04:37:25.061Z,79.8
2023-03-01T04:38:42.167Z,79.7
2023-03-01T04:39:59.273Z,80
2023-03-01T04:41:16.378Z,80.4
2023-03-01T04:42:33.485Z,80.4
2023-03-01T04:43:50.590Z,80.9
2023-03-01T04:45:07.696Z,81.2
2023-03-01T04:46:24.802Z,81
2023-03-01T04:47:41.907Z,80.8
2023-03-01T04:48:59.013Z,80.8
2023-03-01T04:51:33.225Z,80.3
2023-03-01T04:52:49.352Z,80.4
2023-03-01T04:54:05.474Z,80
2023-03-01T04:55:22.580Z,79.8
2023-03-01T04:56:39.686Z,79.4
2023-03-01T04:57:56.791Z,79.6
2023-03-01T04:59:13.897Z,79.9
2023-03-01T05:00:31.003Z,80.2
2023-03-01T05:01:48.109Z,80.4
2023-03-01T05:03:05.214Z,79.7
2023-03-01T05:04:22.320Z,79.3
2023-03-01T05:05:39.427Z,79.6
2023-03-01T05:06:56.532Z,79.5
2023-03-01T05:08:12.660Z,79.7
2023-03-01T05:09:28.781Z,79.4
2023-03-01T05:10:45.887Z,79.1
2023-03-01T05:12:02.993Z,79.4
2023-03-01T05:14:37.204Z,79.5
2023-03-01T05:15:54.310Z,79.8
2023-03-01T05:17:11.416Z,79.5
2023-03-01T05:18:28.522Z,79.4
2023-03-01T05:19:45.628Z,79.8
2023-03-01T05:22:19.839Z,79.6
2023-03-01T05:24:54.050Z,79.5
2023-03-01T05:26:10.177Z,79.4
2023-03-01T05:27:26.299Z,79
2023-03-01T05:28:43.405Z,79.4
2023-03-01T05:30:00.511Z,79.1
2023-03-01T05:31:17.617Z,79.5
2023-03-01T05:32:34.723Z,80.1
2023-03-01T05:33:51.829Z,80.8
2023-03-01T05:35:08.935Z,81.6
2023-03-01T05:36:26.041Z,83
2023-03-01T05:37:43.146Z,82.4
2023-03-01T05:39:00.252Z,82.2
2023-03-01T05:40:16.379Z,81.2
2023-03-01T05:41:32.501Z,80.6
2023-03-01T05:42:49.607Z,80.6
2023-03-01T05:45:23.819Z,80
2023-03-01T05:46:40.924Z,80.4
2023-03-01T05:47:58.030Z,80.4
2023-03-01T05:49:15.136Z,80.4
2023-03-01T05:50:32.242Z,80.7
2023-03-01T05:53:06.454Z,80.6
2023-03-01T05:54:23.560Z,80.7
2023-03-01T05:55:40.666Z,80.9
2023-03-01T05:56:56.793Z,81.8
2023-03-01T05:58:12.915Z,81.8
2023-03-01T05:59:30.021Z,81.7
2023-03-01T06:00:47.127Z,81.6
2023-03-01T06:02:04.233Z,81.6
2023-03-01T06:03:21.338Z,81.6
2023-03-01T06:04:38.444Z,81.7
2023-03-01T06:05:55.550Z,81.9
2023-03-01T06:07:12.657Z,81.8
2023-03-01T06:08:29.763Z,81.5
2023-03-01T06:09:46.869Z,81.7
2023-03-01T06:11:02.996Z,82.2
2023-03-01T06:12:19.118Z,81.9
2023-03-01T06:13:36.223Z,82.1
2023-03-01T06:14:53.329Z,82.3
2023-03-01T06:16:10.435Z,82.3
2023-03-01T06:17:27.541Z,82.4
2023-03-01T06:18:44.646Z,82.8
2023-03-01T06:20:01.752Z,83
2023-03-01T06:21:18.858Z,82.7
2023-03-01T06:23:53.069Z,82.8
2023-03-01T06:25:10.175Z,83
2023-03-01T06:26:27.281Z,83
2023-03-01T06:27:44.386Z,82.8
2023-03-01T06:29:00.508Z,82.4
2023-03-01T06:31:34.720Z,81.7
2023-03-01T06:32:50.847Z,81.9
2023-03-01T06:34:06.968Z,82.1
2023-03-01T06:35:24.074Z,82.1
2023-03-01T06:36:41.180Z,81.8
2023-03-01T06:37:58.285Z,81.5
2023-03-01T06:39:15.391Z,81.5
2023-03-01T06:40:31.513Z,81.4
2023-03-01T06:41:48.619Z,80.8
2023-03-01T06:43:05.725Z,79.7
2023-03-01T06:44:22.830Z,79.2
2023-03-01T06:45:39.936Z,79
2023-03-01T06:46:57.042Z,79.4
2023-03-01T06:48:13.169Z,79.4
2023-03-01T06:49:29.291Z,78.5
2023-03-01T06:50:46.396Z,77.4
2023-03-01T06:52:03.502Z,75.9
2023-03-01T06:54:37.714Z,73
2023-03-01T06:55:54.819Z,72
2023-03-01T06:57:11.925Z,69.7
2023-03-01T06:58:29.031Z,67.5
2023-03-01T06:59:46.137Z,67.9
2023-03-01T07:01:03.243Z,66.7
2023-03-01T07:02:20.348Z,65.1
2023-03-01T07:03:37.454Z,63.6
2023-03-01T07:04:54.560Z,63
2023-03-01T07:06:10.681Z,62.5
2023-03-01T07:07:27.786Z,62.1
2023-03-01T07:08:44.892Z,61.5
2023-03-01T07:10:01.998Z,60.6
2023-03-01T07:11:19.103Z,60.6
2023-03-01T07:12:36.208Z,59.8
2023-03-01T07:13:53.314Z,59.2
2023-03-01T07:15:10.419Z,58.3
2023-03-01T07:16:27.524Z,57.5
2023-03-01T07:17:44.629Z,57.5
2023-03-01T07:19:00.756Z,57.2
2023-03-01T07:20:16.877Z,57.4
2023-03-01T07:21:33.004Z,57.5
2023-03-01T07:22:49.125Z,58.9
2023-03-01T07:25:23.335Z,62.4
2023-03-01T07:27:57.545Z,62.6
2023-03-01T07:29:14.650Z,63.9
2023-03-01T07:30:31.755Z,64.1
2023-03-01T07:31:48.860Z,65.1
2023-03-01T07:33:05.966Z,65.1
2023-03-01T07:34:23.071Z,65.5
2023-03-01T07:35:40.177Z,65.3
2023-03-01T07:36:57.283Z,65.2
2023-03-01T07:38:13.409Z,65.2
2023-03-01T07:40:46.636Z,66
2023-03-01T07:42:03.741Z,65.9
2023-03-01T07:43:20.846Z,65.9
2023-03-01T07:44:37.951Z,65.2
2023-03-01T07:45:55.057Z,64.8
2023-03-01T07:47:12.163Z,64.5
2023-03-01T07:48:29.269Z,63.4
2023-03-01T07:49:46.374Z,63
2023-03-01T07:51:03.479Z,62
2023-03-01T07:52:20.584Z,61.5
2023-03-01T07:53:36.711Z,61.3
2023-03-01T07:56:10.921Z,60.6
2023-03-01T07:57:27.042Z,59.9
2023-03-01T07:58:44.146Z,59.3
2023-03-01T08:00:01.251Z,58.9
2023-03-01T08:01:18.356Z,58.2
2023-03-01T08:02:35.461Z,59.1
2023-03-01T08:03:52.566Z,59.8
2023-03-01T08:05:09.671Z,59.5
2023-03-01T08:06:26.776Z,58.4
2023-03-01T08:07:43.880Z,58.4
2023-03-01T08:09:00.985Z,59.1
2023-03-01T08:11:35.195Z,59.4
2023-03-01T08:12:52.300Z,59.9
2023-03-01T08:14:08.420Z,59.9
2023-03-01T08:15:25.525Z,59.9
2023-03-01T08:16:42.630Z,59.3
2023-03-01T08:17:59.735Z,59.5
2023-03-01T08:19:16.839Z,59
2023-03-01T08:20:33.944Z,59
2023-03-01T08:21:51.049Z,57.9
2023-03-01T08:23:08.154Z,57.1
2023-03-01T08:24:25.259Z,56.1
2023-03-01T08:26:59.468Z,55.6
2023-03-01T08:28:16.572Z,56
2023-03-01T08:29:33.677Z,55.1
2023-03-01T08:30:49.797Z,54.7
2023-03-01T08:33:24.006Z,52.3
2023-03-01T08:34:41.111Z,52.8
2023-03-01T08:35:57.237Z,53.8
2023-03-01T08:37:13.358Z,55.1
2023-03-01T08:38:30.462Z,54.3
2023-03-01T08:39:47.567Z,53.9
2023-03-01T08:42:21.776Z,53.2
2023-03-01T08:43:38.880Z,54
2023-03-01T08:46:13.090Z,54.5
2023-03-01T08:47:30.195Z,55
2023-03-01T08:48:47.300Z,55.2
2023-03-01T08:50:04.404Z,54.6
2023-03-01T08:51:21.509Z,53.4
2023-03-01T08:52:37.635Z,53.6
2023-03-01T08:53:53.756Z,52.5
2023-03-01T08:55:10.860Z,52.3
2023-03-01T08:56:27.965Z,51.9
2023-03-01T08:59:02.174Z,52.2
2023-03-01T09:00:19.279Z,52.9
2023-03-01T09:01:36.384Z,51.9
2023-03-01T09:02:53.489Z,51.4
2023-03-01T09:04:10.593Z,51.1
2023-03-01T09:05:27.698Z,51.4
2023-03-01T09:06:44.803Z,51.7
2023-03-01T09:08:01.908Z,50.8
2023-03-01T09:09:19.012Z,51.1
2023-03-01T09:11:52.238Z,50.6
2023-03-01T09:13:09.343Z,50.4
2023-03-01T09:14:26.448Z,50.1
2023-03-01T09:15:43.552Z,50.8
2023-03-01T09:17:00.657Z,49.6
2023-03-01T09:18:17.762Z,50
2023-03-01T09:20:51.971Z,50.8
2023-03-01T09:22:09.076Z,49.8
2023-03-01T09:23:26.181Z,50.3
2023-03-01T09:24:43.286Z,48.8
2023-03-01T09:26:00.391Z,48.7
2023-03-01T09:27:16.511Z,49
2023-03-01T09:28:33.616Z,51
2023-03-01T09:29:50.721Z,49.8
2023-03-01T09:31:07.826Z,50.2
2023-03-01T09:32:24.930Z,48.7
2023-03-01T09:33:42.035Z,48.6
2023-03-01T09:34:59.140Z,49
2023-03-01T09:36:16.245Z,48.9
2023-03-01T09:37:33.350Z,50.3
2023-03-01T09:38:49.476Z,50.2
2023-03-01T09:40:05.597Z,50.1
2023-03-01T09:41:22.701Z,51.1
2023-03-01T09:42:39.806Z,51.8
2023-03-01T09:43:56.911Z,51.2
2023-03-01T09:45:14.015Z,51.1
2023-03-01T09:46:31.120Z,50.4
2023-03-01T09:47:48.224Z,50.8
2023-03-01T09:49:05.329Z,50.7
2023-03-01T09:50:22.433Z,50.1
2023-03-01T09:51:39.538Z,50
2023-03-01T09:52:55.664Z,49.2
2023-03-01T09:54:11.785Z,48.7
2023-03-01T09:55:28.889Z,47.4
2023-03-01T09:56:45.994Z,46.7
2023-03-01T09:59:20.202Z,45.5
2023-03-01T10:00:37.306Z,45
2023-03-01T10:01:54.410Z,44.9
2023-03-01T10:03:11.516Z,45.3
2023-03-01T10:04:28.620Z,45.7
2023-03-01T10:05:45.724Z,46
2023-03-01T10:07:02.828Z,45.5
2023-03-01T10:09:37.036Z,45.5
2023-03-01T10:10:53.162Z,45.9
2023-03-01T10:12:09.282Z,45.9
2023-03-01T10:13:26.386Z,46.2
2023-03-01T10:14:43.490Z,46.2
2023-03-01T10:16:00.595Z,46.6
2023-03-01T10:17:17.699Z,47.3
2023-03-01T10:18:34.803Z,47.1
2023-03-01T10:19:51.908Z,47.2
2023-03-01T10:21:09.012Z,46.9
2023-03-01T10:22:26.118Z,46.7
2023-03-01T10:23:43.222Z,46.6
2023-03-01T10:24:59.348Z,46.1
2023-03-01T10:26:15.469Z,46.2
2023-03-01T10:27:32.574Z,46.5
2023-03-01T10:28:49.678Z,45.9
2023-03-01T10:30:06.783Z,45.5
2023-03-01T10:31:23.888Z,46.5
2023-03-01T10:32:40.993Z,46.9
2023-03-01T10:33:58.097Z,47.4
2023-03-01T10:35:15.203Z,48
2023-03-01T10:36:32.308Z,47.9
2023-03-01T10:37:49.413Z,47.2
2023-03-01T10:39:06.518Z,47.1
2023-03-01T10:40:23.622Z,47.4
2023-03-01T10:41:40.727Z,47.6
2023-03-01T10:42:56.847Z,47.8
2023-03-01T10:44:13.952Z,48
2023-03-01T10:45:31.056Z,48
2023-03-01T10:46:48.161Z,47.1
2023-03-01T10:48:05.266Z,47.4
2023-03-01T10:49:22.370Z,47.9
2023-03-01T10:50:39.475Z,47.4
2023-03-01T10:51:56.579Z,47.8
2023-03-01T10:53:13.684Z,47.7
2023-03-01T10:54:30.788Z,47.8
2023-03-01T10:55:47.893Z,48.3
2023-03-01T10:57:04.998Z,48.2
2023-03-01T10:58:21.119Z,48.2
2023-03-01T10:59:38.224Z,47.9
2023-03-01T11:00:55.329Z,47.7
2023-03-01T11:02:12.433Z,47.5
2023-03-01T11:03:29.538Z,46.9
2023-03-01T11:04:46.643Z,47
2023-03-01T11:06:03.748Z,47.2
2023-03-01T11:08:37.958Z,47.1
2023-03-01T11:09:55.063Z,46.9
2023-03-01T11:11:12.168Z,46.8
2023-03-01T11:12:29.273Z,46.5
2023-03-01T11:13:46.378Z,46.2
2023-03-01T11:15:02.499Z,46.3
2023-03-01T11:16:19.603Z,45.9
2023-03-01T11:17:36.708Z,45.3
2023-03-01T11:18:53.813Z,45.3
2023-03-01T11:20:10.918Z,45.7
2023-03-01T11:21:28.023Z,45.5
2023-03-01T11:22:45.127Z,45.5
2023-03-01T11:24:02.233Z,45.4
2023-03-01T11:25:19.338Z,45.4
2023-03-01T11:26:36.443Z,44.6
2023-03-01T11:27:53.548Z,44.3
2023-03-01T11:29:10.653Z,43.7
2023-03-01T11:31:44.862Z,43.9
2023-03-01T11:33:00.983Z,43.5
2023-03-01T11:34:18.088Z,43.3
2023-03-01T11:35:35.193Z,42.9
2023-03-01T11:36:52.298Z,43.1
2023-03-01T11:38:09.403Z,42.9
2023-03-01T11:39:26.507Z,44.3
2023-03-01T11:40:43.612Z,44.9
2023-03-01T11:42:00.717Z,45.2
2023-03-01T11:43:17.822Z,45.2
2023-03-01T11:44:34.927Z,45.1
2023-03-01T11:45:52.032Z,45
2023-03-01T11:47:09.137Z,45.1
2023-03-01T11:48:26.241Z,46
2023-03-01T11:49:42.362Z,45.2
2023-03-01T11:50:59.467Z,44.8
2023-03-01T11:52:16.572Z,44.9
2023-03-01T11:54:50.782Z,44.9
2023-03-01T11:56:07.886Z,44.8
2023-03-01T11:57:24.991Z,44.1
2023-03-01T11:58:42.096Z,44
2023-03-01T11:59:59.201Z,43.8
2023-03-01T12:01:16.306Z,43.1
2023-03-01T12:02:33.410Z,43
2023-03-01T12:03:50.516Z,42.9
2023-03-01T12:05:07.620Z,42.6
2023-03-01T12:06:23.741Z,42.9
2023-03-01T12:07:40.846Z,42.8
2023-03-01T12:08:57.951Z,42.7
2023-03-01T12:10:15.056Z,42.7
2023-03-01T12:11:32.160Z,42
2023-03-01T12:12:49.265Z,42.2
2023-03-01T12:14:06.370Z,42.4
2023-03-01T12:15:23.475Z,42.4
2023-03-01T12:16:40.580Z,42.8
2023-03-01T12:17:57.685Z,42.8
2023-03-01T12:19:14.790Z,42.4
2023-03-01T12:20:31.894Z,42.5
2023-03-01T12:21:48.999Z,42.1
2023-03-01T12:23:05.120Z,42.3
2023-03-01T12:24:22.225Z,41.9
2023-03-01T12:25:39.330Z,42.1
2023-03-01T12:26:56.435Z,41.8
2023-03-01T12:28:13.540Z,41.8
2023-03-01T12:29:30.644Z,41.9
2023-03-01T12:30:47.749Z,41.8
2023-03-01T12:33:21.959Z,44.7
2023-03-01T12:34:39.063Z,44.5
2023-03-01T12:35:56.168Z,44.8
2023-03-01T12:37:13.273Z,45.1
2023-03-01T12:38:30.378Z,45.3
2023-03-01T12:41:03.604Z,44.8
2023-03-01T12:42:20.710Z,45.5
2023-03-01T12:43:37.814Z,45.3
2023-03-01T12:44:54.919Z,45.7
2023-03-01T12:46:12.024Z,45.8
2023-03-01T12:47:29.129Z,45.9
2023-03-01T12:48:46.234Z,45.1
2023-03-01T12:50:03.339Z,44.5
2023-03-01T12:51:20.443Z,44.9
2023-03-01T12:52:37.548Z,45.6
2023-03-01T12:53:54.653Z,45.6
2023-03-01T12:56:28.863Z,44.8
2023-03-01T12:57:44.989Z,45.5
2023-03-01T12:59:01.110Z,44.9
2023-03-01T13:00:18.214Z,44.3
2023-03-01T13:01:35.320Z,44.3
2023-03-01T13:02:52.424Z,44.3
2023-03-01T13:04:09.529Z,43.7
2023-03-01T13:05:26.634Z,43.9
2023-03-01T13:06:43.739Z,44.1
2023-03-01T13:08:00.844Z,43.4
2023-03-01T13:09:17.948Z,43.8
2023-03-01T13:10:35.053Z,43.9
2023-03-01T13:11:52.158Z,43.4
2023-03-01T13:13:08.285Z,43.2
2023-03-01T13:14:24.406Z,42.7
2023-03-01T13:15:41.510Z,42.5
2023-03-01T13:16:58.615Z,42.5
2023-03-01T13:18:15.720Z,42.7
2023-03-01T13:19:32.826Z,42.5
2023-03-01T13:20:49.931Z,42.5
2023-03-01T13:22:07.035Z,41.9
2023-03-01T13:23:24.140Z,43.6
2023-03-01T13:24:41.246Z,43.3
2023-03-01T13:25:58.351Z,42.2
2023-03-01T13:27:15.456Z,41.9
2023-03-01T13:28:32.561Z,42.2
2023-03-01T13:29:49.665Z,42.9
2023-03-01T13:31:05.786Z,43
2023-03-01T13:32:22.891Z,42.5
2023-03-01T13:33:39.996Z,42.5
2023-03-01T13:34:57.101Z,42.9
2023-03-01T13:36:14.206Z,42.9
2023-03-01T13:37:31.310Z,42.8
2023-03-01T13:38:48.415Z,42.1
2023-03-01T13:40:05.520Z,42.3
2023-03-01T13:41:22.625Z,42.2
2023-03-01T13:42:39.730Z,42.1
2023-03-01T13:43:56.834Z,42.5
2023-03-01T13:45:13.939Z,42.9
2023-03-01T13:46:31.044Z,42.9
2023-03-01T13:47:47.165Z,43
2023-03-01T13:49:04.270Z,42.6
2023-03-01T13:50:21.375Z,42.4
2023-03-01T13:51:38.480Z,41.9
2023-03-01T13:54:12.689Z,43.1
2023-03-01T13:55:29.794Z,43
2023-03-01T13:58:04.004Z,42.7
2023-03-01T13:59:21.109Z,43
2023-03-01T14:00:38.214Z,43
2023-03-01T14:01:55.320Z,43
2023-03-01T14:03:12.424Z,43
2023-03-01T14:05:45.650Z,43
2023-03-01T14:07:02.755Z,43
2023-03-01T14:08:18.881Z,43
2023-03-01T14:09:35.986Z,43.1
2023-03-01T14:10:52.106Z,43.3
2023-03-01T14:12:09.211Z,43.4
2023-03-01T14:13:26.316Z,43.3
2023-03-01T14:14:43.422Z,43.8
2023-03-01T14:16:00.527Z,43.6
2023-03-01T14:17:17.632Z,43.4
2023-03-01T14:18:34.736Z,43.7
2023-03-01T14:19:51.841Z,43.6
2023-03-01T14:21:08.946Z,43.9
2023-03-01T14:22:25.072Z,44.2
2023-03-01T14:23:41.193Z,44.3
2023-03-01T14:24:58.298Z,44.4
2023-03-01T14:26:15.402Z,44
2023-03-01T14:27:32.507Z,43.8
2023-03-01T14:28:49.612Z,43.8
2023-03-01T14:31:23.821Z,43.7
2023-03-01T14:32:40.927Z,44.3
2023-03-01T14:33:58.032Z,44.8
2023-03-01T14:35:15.137Z,45
2023-03-01T14:36:32.242Z,44.9
2023-03-01T14:37:49.347Z,44.9
2023-03-01T14:39:06.451Z,45.1
2023-03-01T14:40:22.572Z,45.1
2023-03-01T14:41:39.677Z,45
2023-03-01T14:42:56.782Z,45.1
2023-03-01T14:44:13.887Z,45.3
2023-03-01T14:45:30.991Z,45.4
2023-03-01T14:46:48.097Z,45.4
2023-03-01T14:48:05.201Z,45.4
2023-03-01T14:49:22.306Z,45.6
2023-03-01T14:51:56.514Z,45.9
2023-03-01T14:53:13.618Z,46.2
2023-03-01T14:54:30.723Z,46.1
2023-03-01T14:55:47.828Z,46.3
2023-03-01T14:57:03.949Z,46.5
2023-03-01T14:58:21.054Z,46.4
2023-03-01T14:59:38.159Z,46.4
2023-03-01T15:00:55.264Z,46.3
2023-03-01T15:02:12.368Z,46.2
2023-03-01T15:03:29.473Z,46.5
2023-03-01T15:04:46.578Z,46.5
2023-03-01T15:07:20.788Z,46.6
2023-03-01T15:08:37.893Z,46.7
2023-03-01T15:09:54.997Z,46.4
2023-03-01T15:11:12.102Z,46.3
2023-03-01T15:12:29.207Z,46.4
2023-03-01T15:13:45.328Z,46.5
2023-03-01T15:15:02.433Z,46.7
2023-03-01T15:16:18.554Z,46.8
2023-03-01T15:17:35.659Z,47
2023-03-01T15:18:52.764Z,46.7
2023-03-01T15:20:09.868Z,46.6
2023-03-01T15:21:26.974Z,46.6
2023-03-01T15:22:44.078Z,46.7
2023-03-01T15:24:01.184Z,46.5
2023-03-01T15:25:18.289Z,46.4
2023-03-01T15:26:35.394Z,46.4
2023-03-01T15:27:52.499Z,46.4
2023-03-01T15:30:26.708Z,46.7
2023-03-01T15:31:43.813Z,46.7
2023-03-01T15:32:59.934Z,46.7
2023-03-01T15:34:17.039Z,46.8
2023-03-01T15:35:34.144Z,46.4
2023-03-01T15:38:08.354Z,46.7
2023-03-01T15:39:25.459Z,46.6
2023-03-01T15:40:42.563Z,46.4
2023-03-01T15:41:59.668Z,46.6
2023-03-01T15:43:16.773Z,46.5
2023-03-01T15:44:33.878Z,46.4
2023-03-01T15:45:50.983Z,46
2023-03-01T15:47:08.088Z,45.8
2023-03-01T15:48:25.193Z,46.1
2023-03-01T15:49:42.297Z,45.9
2023-03-01T15:50:58.418Z,44.9
2023-03-01T15:52:15.523Z,45.2
2023-03-01T15:53:32.628Z,45.4
2023-03-01T15:54:49.733Z,45.7
2023-03-01T15:56:06.838Z,45.9
2023-03-01T15:57:23.943Z,46.1
2023-03-01T15:58:41.048Z,46.2
2023-03-01T15:59:58.153Z,46.2
2023-03-01T16:01:15.258Z,46.2
2023-03-01T16:02:32.363Z,46.5
2023-03-01T16:03:49.467Z,46.5
2023-03-01T16:05:06.573Z,46.8
2023-03-01T16:06:23.678Z,47
2023-03-01T16:07:39.799Z,46.8
2023-03-01T16:08:56.903Z,46.9
2023-03-01T16:10:14.008Z,47.2
2023-03-01T16:11:31.113Z,47.4
2023-03-01T16:12:48.219Z,47.5
2023-03-01T16:14:05.324Z,47.5
2023-03-01T16:16:39.534Z,47.9
2023-03-01T16:17:56.639Z,47.6
2023-03-01T16:19:13.744Z,47.8
2023-03-01T16:20:30.849Z,47.8
2023-03-01T16:21:47.954Z,47.8
2023-03-01T16:23:05.059Z,47.8
2023-03-01T16:24:22.163Z,48
2023-03-01T16:25:38.284Z,48.2
2023-03-01T16:26:55.389Z,48.3
2023-03-01T16:28:12.495Z,48.3
2023-03-01T16:29:29.600Z,48.5
2023-03-01T16:30:46.705Z,48.5
2023-03-01T16:32:03.809Z,48.7
2023-03-01T16:33:20.914Z,48.7
2023-03-01T16:34:38.019Z,48.4
2023-03-01T16:35:55.124Z,48.4
2023-03-01T16:37:12.227Z,48.4
2023-03-01T16:38:29.332Z,48.8
2023-03-01T16:39:46.437Z,48.6
2023-03-01T16:41:03.542Z,48.6
2023-03-01T16:42:19.663Z,48.6
2023-03-01T16:43:36.768Z,48.6
2023-03-01T16:44:53.873Z,48.6
2023-03-01T16:46:10.978Z,48.8
2023-03-01T16:47:28.083Z,48.8
2023-03-01T16:48:45.187Z,48.9
2023-03-01T16:50:02.293Z,49
2023-03-01T16:51:19.398Z,49.2
2023-03-01T16:52:36.502Z,49
2023-03-01T16:53:53.607Z,49.1
2023-03-01T16:55:10.712Z,49.2
2023-03-01T16:56:27.817Z,49.1
2023-03-01T16:57:44.922Z,49.4
2023-03-01T16:59:01.043Z,49.5
2023-03-01T17:00:18.148Z,49.5
2023-03-01T17:01:35.253Z,49.6
2023-03-01T17:02:52.358Z,49.8
2023-03-01T17:04:09.463Z,49.7
2023-03-01T17:05:26.567Z,49.7
2023-03-01T17:06:43.672Z,50
2023-03-01T17:08:00.777Z,50
2023-03-01T17:09:17.882Z,50.1
2023-03-01T17:10:34.987Z,50.3
2023-03-01T17:11:52.092Z,50.3
2023-03-01T17:13:09.197Z,50.4
2023-03-01T17:14:26.302Z,50.5
2023-03-01T17:15:42.423Z,50.5
2023-03-01T17:16:59.528Z,50.5
2023-03-01T17:18:16.634Z,50.8
2023-03-01T17:19:33.739Z,50.8
2023-03-01T17:22:07.949Z,50.9
2023-03-01T17:23:25.055Z,50.6
2023-03-01T17:24:42.160Z,50.8
2023-03-01T17:25:59.265Z,50.8
2023-03-01T17:27:16.370Z,51
2023-03-01T17:28:33.475Z,51.1
2023-03-01T17:29:50.580Z,51
2023-03-01T17:31:07.685Z,51
2023-03-01T17:32:23.806Z,51
2023-03-01T17:33:40.911Z,51.1
2023-03-01T17:34:58.017Z,51
2023-03-01T17:36:15.122Z,50.9
2023-03-01T17:37:32.227Z,50.8
2023-03-01T17:38:49.332Z,50.4
2023-03-01T17:40:06.437Z,50.8
2023-03-01T17:41:23.542Z,50.8
2023-03-01T17:42:40.648Z,51
2023-03-01T17:43:57.753Z,51.2
2023-03-01T17:45:14.858Z,51.2
2023-03-01T17:46:31.964Z,51.4
2023-03-01T17:47:49.069Z,51.6
2023-03-01T17:49:05.190Z,51.9
2023-03-01T17:50:22.295Z,52.8
2023-03-01T17:51:39.401Z,52.8
2023-03-01T17:52:56.506Z,52.6
2023-03-01T17:54:13.611Z,52.4
2023-03-01T17:55:30.717Z,52.1
2023-03-01T17:56:47.822Z,52
2023-03-01T17:58:04.927Z,52.2
2023-03-01T17:59:22.033Z,52.5
2023-03-01T18:00:39.138Z,52.4
2023-03-01T18:01:56.243Z,52.1
2023-03-01T18:03:13.348Z,52
2023-03-01T18:04:30.453Z,52.2
2023-03-01T18:05:46.575Z,52.6
2023-03-01T18:07:03.680Z,52.5
2023-03-01T18:08:20.785Z,52.3
2023-03-01T18:09:37.890Z,52.6
2023-03-01T18:10:54.996Z,52.5
2023-03-01T18:12:12.101Z,52.3
2023-03-01T18:13:29.207Z,52.2
2023-03-01T18:14:46.312Z,52.6
2023-03-01T18:16:03.418Z,53.4
2023-03-01T18:17:20.523Z,53.1
2023-03-01T18:18:37.628Z,53.1
2023-03-01T18:19:54.733Z,53.5
2023-03-01T18:21:11.838Z,53.6
2023-03-01T18:22:27.960Z,53.5